Time;durP1;ratioP1;P1;durP2;ratioP2;P2;SDS_P1;SDS_P2;PMS_P1;PMS_P2;Temp;Humidity;BMP_temperature;BMP_pressure;BME280_temperature;BME280_humidity;BME280_pressure;Samples;Min_cycle;Max_cycle;Signal;HPM_P1;HPM_P2
2022/11/26 00:03:50;;;;;;;;;;;5.00;99.90;;;;;;8395210;28;19924;-74
2022/11/26 00:07:53;;;;;;;;;;;4.90;99.90;;;;;;8415495;28;19928;-73
2022/11/26 00:11:55;;;;;;;;;;;4.90;99.90;;;;;;8410680;28;20465;-74
2022/11/26 00:15:57;;;;;;;;;;;4.80;99.90;;;;;;8419348;28;19964;-74
2022/11/26 00:19:58;;;;;;;;;;;4.80;99.90;;;;;;8412458;28;20383;-74
2022/11/26 00:24:01;;;;;;;;;;;4.70;99.90;;;;;;8417311;28;20400;-74
2022/11/26 00:28:13;;;;;;;;;;;4.60;99.90;;;;;;8412063;28;19941;-74
2022/11/26 00:32:16;;;;;;;;;;;4.60;99.90;;;;;;8413448;28;20374;-74
2022/11/26 00:36:20;;;;;;;;;;;4.60;99.90;;;;;;8426198;28;20371;-74
2022/11/26 00:40:26;;;;;;;;;;;4.50;99.90;;;;;;8419300;28;20367;-74
2022/11/26 00:44:28;;;;;;;;;;;4.50;99.90;;;;;;8417982;28;20018;-74
2022/11/26 00:48:29;;;;;;;;;;;4.50;99.90;;;;;;8414506;28;19925;-74
2022/11/26 00:52:33;;;;;;;;;;;4.50;99.90;;;;;;8403033;28;19924;-74
2022/11/26 00:56:38;;;;;;;;;;;4.40;99.90;;;;;;8409221;28;20103;-74
2022/11/26 01:00:40;;;;;;;;;;;4.40;99.90;;;;;;8419567;28;19936;-74
2022/11/26 01:04:41;;;;;;;;;;;4.30;99.90;;;;;;8414989;28;20373;-74
2022/11/26 01:08:43;;;;;;;;;;;4.30;99.90;;;;;;8422106;28;19931;-74
2022/11/26 01:12:45;;;;;;;;;;;4.30;99.90;;;;;;8408078;28;20330;-74
2022/11/26 01:16:47;;;;;;;;;;;4.30;99.90;;;;;;8412038;28;20283;-74
2022/11/26 01:20:49;;;;;;;;;;;4.20;99.90;;;;;;8420922;28;19947;-74
2022/11/26 01:24:50;;;;;;;;;;;4.20;99.90;;;;;;8405828;28;19938;-74
2022/11/26 01:28:52;;;;;;;;;;;4.20;99.90;;;;;;8415608;28;19971;-74
2022/11/26 01:32:54;;;;;;;;;;;4.20;99.90;;;;;;8415763;28;20035;-74
2022/11/26 01:36:56;;;;;;;;;;;4.20;99.90;;;;;;8410517;28;19972;-74
2022/11/26 01:40:57;;;;;;;;;;;4.20;99.90;;;;;;8411296;28;19924;-73
2022/11/26 01:44:59;;;;;;;;;;;4.10;99.90;;;;;;8416422;28;19980;-74
2022/11/26 01:49:17;;;;;;;;;;;4.10;99.90;;;;;;8418153;28;19946;-74
2022/11/26 01:53:22;;;;;;;;;;;4.10;99.90;;;;;;8415073;28;19923;-74
2022/11/26 01:57:27;;;;;;;;;;;4.00;99.90;;;;;;8398894;28;19931;-74
2022/11/26 02:01:28;;;;;;;;;;;4.00;99.90;;;;;;8408264;28;20391;-74
2022/11/26 02:05:33;;;;;;;;;;;4.00;99.90;;;;;;8415467;28;20466;-74
2022/11/26 02:09:35;;;;;;;;;;;4.00;99.90;;;;;;8417748;28;19932;-74
2022/11/26 02:13:36;;;;;;;;;;;4.00;99.90;;;;;;8404922;28;19970;-76
2022/11/26 02:17:56;;;;;;;;;;;3.90;99.90;;;;;;8394116;28;19924;-76
2022/11/26 02:22:03;;;;;;;;;;;3.90;99.90;;;;;;8416653;28;20019;-76
2022/11/26 02:26:05;;;;;;;;;;;3.90;99.90;;;;;;8411917;28;20381;-76
2022/11/26 02:40:14;;;;;;;;;;;3.80;99.90;;;;;;8412119;28;19918;-76
2022/11/26 02:44:17;;;;;;;;;;;3.70;99.90;;;;;;8390521;28;19931;-76
2022/11/26 02:48:20;;;;;;;;;;;3.70;99.90;;;;;;8412384;28;20366;-76
2022/11/26 02:52:23;;;;;;;;;;;3.70;99.90;;;;;;8417314;28;19939;-76
2022/11/26 02:56:26;;;;;;;;;;;3.70;99.90;;;;;;8384779;28;19924;-76
2022/11/26 03:00:28;;;;;;;;;;;3.70;99.90;;;;;;8409717;28;20019;-76
2022/11/26 03:04:33;;;;;;;;;;;3.70;99.90;;;;;;8415320;28;20010;-76
2022/11/26 03:08:35;;;;;;;;;;;3.60;99.90;;;;;;8404147;28;20370;-76
2022/11/26 03:12:36;;;;;;;;;;;3.60;99.90;;;;;;8395865;28;19928;-76
2022/11/26 03:16:38;;;;;;;;;;;3.60;99.90;;;;;;8392178;28;20676;-76
2022/11/26 03:20:39;;;;;;;;;;;3.70;99.90;;;;;;8410570;28;19955;-76
2022/11/26 03:24:41;;;;;;;;;;;3.70;99.90;;;;;;8414186;28;19960;-76
2022/11/26 03:28:43;;;;;;;;;;;3.70;99.90;;;;;;8419847;28;19960;-75
2022/11/26 03:32:44;;;;;;;;;;;3.70;99.90;;;;;;8411814;28;20387;-76
2022/11/26 03:36:46;;;;;;;;;;;3.70;99.90;;;;;;8405680;28;19971;-76
2022/11/26 03:40:58;;;;;;;;;;;3.70;99.90;;;;;;8425113;28;20379;-75
2022/11/26 03:45:00;;;;;;;;;;;3.70;99.90;;;;;;8423382;28;19971;-76
2022/11/26 03:49:01;;;;;;;;;;;3.70;99.90;;;;;;8423213;28;20272;-75
2022/11/26 03:53:03;;;;;;;;;;;3.70;99.90;;;;;;8423726;28;19951;-76
2022/11/26 03:57:05;;;;;;;;;;;3.70;99.90;;;;;;8409677;28;19928;-76
2022/11/26 04:01:07;;;;;;;;;;;3.70;99.90;;;;;;8415806;28;19932;-75
2022/11/26 04:05:09;;;;;;;;;;;3.70;99.90;;;;;;8416271;28;19938;-75
2022/11/26 04:09:11;;;;;;;;;;;3.70;99.90;;;;;;8418492;28;19925;-73
2022/11/26 04:13:13;;;;;;;;;;;3.70;99.90;;;;;;8411506;28;20237;-74
2022/11/26 04:17:14;;;;;;;;;;;3.70;99.90;;;;;;8424360;28;19964;-74
2022/11/26 04:21:16;;;;;;;;;;;3.70;99.90;;;;;;8416207;28;21250;-76
2022/11/26 04:25:18;;;;;;;;;;;3.70;99.90;;;;;;8398111;28;20386;-76
2022/11/26 04:29:19;;;;;;;;;;;3.80;99.90;;;;;;8407245;28;20019;-76
2022/11/26 04:33:21;;;;;;;;;;;3.80;99.90;;;;;;8417488;28;19924;-75
2022/11/26 04:37:22;;;;;;;;;;;3.80;99.90;;;;;;8415895;28;19930;-76
2022/11/26 04:41:24;;;;;;;;;;;3.80;99.90;;;;;;8416992;28;19939;-75
2022/11/26 04:45:26;;;;;;;;;;;3.80;99.90;;;;;;8403778;28;19932;-76
2022/11/26 04:49:28;;;;;;;;;;;3.70;99.90;;;;;;8415605;28;20485;-76
2022/11/26 04:53:29;;;;;;;;;;;3.60;99.90;;;;;;8410125;28;19932;-76
2022/11/26 04:57:31;;;;;;;;;;;3.60;99.90;;;;;;8394352;28;19976;-76
2022/11/26 05:01:32;;;;;;;;;;;3.60;99.90;;;;;;8396698;28;19961;-76
2022/11/26 05:05:34;;;;;;;;;;;3.50;99.90;;;;;;8397149;28;20420;-76
2022/11/26 05:09:36;;;;;;;;;;;3.50;99.90;;;;;;8412787;28;20299;-76
2022/11/26 05:13:37;;;;;;;;;;;3.50;99.90;;;;;;8397349;28;19959;-76
2022/11/26 05:17:39;;;;;;;;;;;3.50;99.90;;;;;;8407260;28;20007;-75
2022/11/26 05:21:41;;;;;;;;;;;3.50;99.90;;;;;;8411646;28;19932;-76
2022/11/26 05:25:42;;;;;;;;;;;3.50;99.90;;;;;;8379633;28;19945;-76
2022/11/26 05:29:44;;;;;;;;;;;3.50;99.90;;;;;;8397521;28;20514;-76
2022/11/26 05:33:46;;;;;;;;;;;3.50;99.90;;;;;;8386905;28;20011;-75
2022/11/26 05:37:47;;;;;;;;;;;3.50;99.90;;;;;;8415931;28;19960;-76
2022/11/26 05:41:49;;;;;;;;;;;3.40;99.90;;;;;;8423872;28;19924;-76
2022/11/26 05:45:50;;;;;;;;;;;3.40;99.90;;;;;;8414757;28;19924;-76
2022/11/26 05:49:52;;;;;;;;;;;3.40;99.90;;;;;;8430122;28;19967;-76
2022/11/26 05:53:54;;;;;;;;;;;3.40;99.90;;;;;;8414479;28;19954;-76
2022/11/26 05:57:55;;;;;;;;;;;3.30;99.90;;;;;;8404930;28;20359;-76
2022/11/26 06:01:57;;;;;;;;;;;3.30;99.90;;;;;;8420933;28;19963;-76
2022/11/26 06:05:59;;;;;;;;;;;3.20;99.90;;;;;;8423201;28;20025;-76
2022/11/26 06:10:00;;;;;;;;;;;3.20;99.90;;;;;;8415314;28;19929;-77
2022/11/26 06:14:02;;;;;;;;;;;3.30;99.90;;;;;;8415946;28;19928;-76
2022/11/26 06:18:04;;;;;;;;;;;3.30;99.90;;;;;;8403812;28;19924;-76
2022/11/26 06:22:06;;;;;;;;;;;3.40;99.90;;;;;;8416519;28;20354;-76
2022/11/26 06:26:08;;;;;;;;;;;3.40;99.90;;;;;;8412350;28;20356;-76
2022/11/26 06:30:10;;;;;;;;;;;3.50;99.90;;;;;;8411835;28;19976;-76
2022/11/26 06:34:13;;;;;;;;;;;3.50;99.90;;;;;;8414050;28;20709;-76
2022/11/26 06:38:14;;;;;;;;;;;3.50;99.90;;;;;;8420890;28;19936;-76
2022/11/26 06:42:16;;;;;;;;;;;3.60;99.90;;;;;;8425912;28;19954;-76
2022/11/26 06:46:18;;;;;;;;;;;3.60;99.90;;;;;;8418698;28;20030;-76
2022/11/26 06:50:20;;;;;;;;;;;3.50;99.90;;;;;;8400742;28;19935;-76
2022/11/26 06:54:22;;;;;;;;;;;3.50;99.90;;;;;;8403931;28;19929;-76
2022/11/26 06:58:24;;;;;;;;;;;3.50;99.90;;;;;;8391762;28;19932;-76
2022/11/26 07:02:26;;;;;;;;;;;3.50;99.90;;;;;;8413828;28;19979;-76
2022/11/26 07:06:28;;;;;;;;;;;3.50;99.90;;;;;;8414460;28;19932;-76
2022/11/26 07:10:30;;;;;;;;;;;3.50;99.90;;;;;;8402751;28;19936;-76
2022/11/26 07:14:32;;;;;;;;;;;3.50;99.90;;;;;;8398183;28;19929;-75
2022/11/26 07:18:33;;;;;;;;;;;3.50;99.90;;;;;;8410773;28;19930;-76
2022/11/26 07:22:35;;;;;;;;;;;3.60;99.90;;;;;;8410080;28;19928;-76
2022/11/26 07:26:37;;;;;;;;;;;3.60;99.90;;;;;;8415306;28;19931;-76
2022/11/26 07:30:38;;;;;;;;;;;3.60;99.90;;;;;;8395726;28;19924;-76
2022/11/26 07:34:40;;;;;;;;;;;3.70;99.90;;;;;;8411649;28;20264;-76
2022/11/26 07:38:42;;;;;;;;;;;3.70;99.90;;;;;;8406314;28;19928;-76
2022/11/26 07:42:43;;;;;;;;;;;3.70;99.90;;;;;;8421404;28;19974;-76
2022/11/26 07:46:48;;;;;;;;;;;3.70;99.90;;;;;;8418669;28;22294;-77
2022/11/26 07:50:50;;;;;;;;;;;3.70;99.90;;;;;;8411707;28;20384;-76
2022/11/26 07:54:51;;;;;;;;;;;3.70;99.90;;;;;;8404997;28;19998;-76
2022/11/26 07:58:54;;;;;;;;;;;3.80;99.90;;;;;;8403529;28;20287;-76
2022/11/26 08:02:55;;;;;;;;;;;3.90;99.90;;;;;;8408816;28;19924;-76
2022/11/26 08:06:57;;;;;;;;;;;4.00;99.90;;;;;;8417059;28;20023;-76
2022/11/26 08:10:59;;;;;;;;;;;4.10;99.90;;;;;;8417857;28;19959;-76
2022/11/26 08:15:00;;;;;;;;;;;4.30;99.90;;;;;;8397862;28;20433;-76
2022/11/26 08:19:07;;;;;;;;;;;4.40;99.90;;;;;;8414657;28;19931;-76
2022/11/26 08:23:08;;;;;;;;;;;4.50;99.90;;;;;;8417751;28;19975;-76
2022/11/26 08:27:10;;;;;;;;;;;4.60;99.90;;;;;;8415895;28;19970;-76
2022/11/26 08:31:13;;;;;;;;;;;4.70;99.90;;;;;;8426328;28;20022;-76
2022/11/26 08:35:18;;;;;;;;;;;4.80;99.90;;;;;;8419663;28;20276;-76
2022/11/26 08:39:19;;;;;;;;;;;4.90;99.90;;;;;;8406053;28;19946;-75
2022/11/26 08:43:21;;;;;;;;;;;5.00;99.90;;;;;;8415183;28;19924;-75
2022/11/26 08:47:35;;;;;;;;;;;5.10;99.90;;;;;;8412952;28;19971;-76
2022/11/26 08:51:36;;;;;;;;;;;5.20;99.90;;;;;;8418250;28;19931;-76
2022/11/26 08:55:38;;;;;;;;;;;5.30;99.90;;;;;;8421422;28;20371;-76
2022/11/26 08:59:59;;;;;;;;;;;5.40;99.90;;;;;;8409030;28;19990;-76
2022/11/26 09:04:02;;;;;;;;;;;5.40;99.90;;;;;;8418465;28;19938;-75
2022/11/26 09:08:04;;;;;;;;;;;5.50;99.90;;;;;;8420477;28;19938;-76
2022/11/26 09:12:06;;;;;;;;;;;5.60;99.90;;;;;;8428776;28;20914;-76
2022/11/26 09:16:08;;;;;;;;;;;5.70;99.90;;;;;;8407315;28;20034;-75
2022/11/26 09:20:11;;;;;;;;;;;5.80;99.90;;;;;;8412443;28;20333;-76
2022/11/26 09:24:13;;;;;;;;;;;5.90;99.90;;;;;;8393010;28;20263;-74
2022/11/26 09:28:15;;;;;;;;;;;6.00;99.90;;;;;;8420564;28;20398;-74
2022/11/26 09:32:16;;;;;;;;;;;6.10;99.90;;;;;;8399859;28;19933;-74
2022/11/26 09:36:30;;;;;;;;;;;6.20;99.90;;;;;;8404657;28;19931;-74
2022/11/26 09:40:39;;;;;;;;;;;6.20;99.90;;;;;;8399494;28;20355;-74
2022/11/26 09:45:01;;;;;;;;;;;6.30;99.90;;;;;;8418092;28;20023;-74
2022/11/26 09:49:03;;;;;;;;;;;6.50;99.90;;;;;;8407433;28;19924;-74
2022/11/26 09:53:15;;;;;;;;;;;6.50;99.90;;;;;;8411319;28;19936;-73
2022/11/26 09:57:29;;;;;;;;;;;6.70;99.90;;;;;;8406444;28;20368;-74
2022/11/26 10:01:32;;;;;;;;;;;6.80;99.90;;;;;;8417985;28;19924;-73
2022/11/26 10:05:42;;;;;;;;;;;6.90;99.90;;;;;;8417171;28;19928;-74
2022/11/26 10:09:54;;;;;;;;;;;7.00;99.90;;;;;;8399104;28;19959;-74
2022/11/26 10:14:14;;;;;;;;;;;7.10;99.90;;;;;;8412637;28;20379;-74
2022/11/26 10:18:35;;;;;;;;;;;7.20;99.90;;;;;;8406978;28;20136;-74
2022/11/26 10:22:43;;;;;;;;;;;7.30;99.90;;;;;;8422979;28;19924;-74
2022/11/26 10:26:45;;;;;;;;;;;7.50;99.90;;;;;;8409272;28;20258;-74
2022/11/26 10:30:54;;;;;;;;;;;7.60;99.90;;;;;;8401848;28;19924;-74
2022/11/26 10:34:57;;;;;;;;;;;7.70;99.90;;;;;;8417899;28;20010;-74
2022/11/26 10:38:58;;;;;;;;;;;7.80;99.90;;;;;;8401862;28;19956;-73
2022/11/26 10:43:09;;;;;;;;;;;8.00;99.90;;;;;;8418654;28;19938;-74
2022/11/26 10:47:18;;;;;;;;;;;8.20;99.90;;;;;;8421221;28;19931;-74
2022/11/26 10:51:29;;;;;;;;;;;8.40;99.90;;;;;;8423148;28;20276;-74
2022/11/26 10:55:36;;;;;;;;;;;8.50;99.90;;;;;;8390907;28;19924;-74
2022/11/26 10:59:52;;;;;;;;;;;8.70;99.90;;;;;;8398342;28;19924;-73
2022/11/26 11:03:56;;;;;;;;;;;8.90;99.90;;;;;;8385974;28;19981;-74
2022/11/26 11:08:30;;;;;;;;;;;9.30;99.90;;;;;;8394876;28;19932;-74
2022/11/26 11:12:32;;;;;;;;;;;9.90;99.90;;;;;;8394403;28;20038;-74
2022/11/26 11:16:38;;;;;;;;;;;10.40;99.90;;;;;;8391119;28;20027;-74
2022/11/26 11:20:50;;;;;;;;;;;10.70;99.90;;;;;;8396560;28;19929;-74
2022/11/26 11:24:53;;;;;;;;;;;11.10;99.90;;;;;;8403025;28;19975;-74
2022/11/26 11:28:55;;;;;;;;;;;11.40;99.90;;;;;;8392266;28;19932;-74
2022/11/26 11:33:07;;;;;;;;;;;11.30;99.90;;;;;;8389736;28;19932;-74
2022/11/26 11:37:17;;;;;;;;;;;11.10;99.90;;;;;;8387144;28;19925;-74
2022/11/26 11:41:30;;;;;;;;;;;10.80;99.90;;;;;;8393009;28;20386;-74
2022/11/26 11:45:33;;;;;;;;;;;10.70;99.90;;;;;;8373388;28;19967;-74
2022/11/26 11:49:47;;;;;;;;;;;10.50;99.90;;;;;;8398005;28;20295;-74
2022/11/26 11:54:12;;;;;;;;;;;10.50;99.90;;;;;;8387682;28;20439;-74
2022/11/26 11:58:13;;;;;;;;;;;10.70;99.90;;;;;;8371197;28;19939;-74
2022/11/26 12:02:21;;;;;;;;;;;10.90;99.90;;;;;;8379843;28;19966;-74
2022/11/26 12:06:42;;;;;;;;;;;11.30;99.90;;;;;;8395779;28;19925;-74
2022/11/26 12:11:07;;;;;;;;;;;11.90;99.90;;;;;;8391183;28;19928;-74
2022/11/26 12:15:22;;;;;;;;;;;12.20;99.90;;;;;;8400790;28;19928;-74
2022/11/26 12:19:36;;;;;;;;;;;12.10;99.90;;;;;;8411180;28;19924;-74
2022/11/26 12:23:58;;;;;;;;;;;11.90;99.90;;;;;;8401859;28;20288;-74
2022/11/26 12:28:00;;;;;;;;;;;11.70;99.90;;;;;;8395449;28;20007;-74
2022/11/26 12:32:09;;;;;;;;;;;11.50;99.90;;;;;;8399863;28;19929;-74
2022/11/26 12:36:35;;;;;;;;;;;11.30;99.90;;;;;;8398662;28;19924;-74
2022/11/26 12:40:40;;;;;;;;;;;11.20;99.90;;;;;;8394716;28;19986;-74
2022/11/26 12:44:43;;;;;;;;;;;11.10;99.90;;;;;;8399675;28;20346;-74
2022/11/26 12:49:03;;;;;;;;;;;11.00;99.90;;;;;;8395051;28;19932;-74
2022/11/26 12:53:16;;;;;;;;;;;10.90;99.90;;;;;;8396303;28;20383;-74
2022/11/26 12:57:23;;;;;;;;;;;10.90;99.90;;;;;;8399695;28;20138;-74
2022/11/26 13:01:26;;;;;;;;;;;10.80;99.90;;;;;;8399833;28;20787;-74
2022/11/26 13:05:30;;;;;;;;;;;10.80;99.90;;;;;;8404241;28;19928;-74
2022/11/26 13:09:52;;;;;;;;;;;10.80;99.90;;;;;;8401956;28;20026;-74
2022/11/26 13:14:02;;;;;;;;;;;10.80;99.90;;;;;;8414786;28;20351;-74
2022/11/26 13:18:10;;;;;;;;;;;10.80;99.90;;;;;;8401374;28;19960;-74
2022/11/26 13:22:14;;;;;;;;;;;10.90;99.90;;;;;;8399595;28;19925;-74
2022/11/26 13:26:16;;;;;;;;;;;11.00;99.90;;;;;;8387821;28;19931;-74
2022/11/26 13:30:20;;;;;;;;;;;11.10;99.90;;;;;;8398833;28;20342;-74
2022/11/26 13:34:21;;;;;;;;;;;11.30;99.90;;;;;;8397127;28;20384;-74
2022/11/26 13:38:23;;;;;;;;;;;11.50;99.90;;;;;;8395286;28;20380;-74
2022/11/26 13:42:24;;;;;;;;;;;11.70;99.90;;;;;;8399685;28;20376;-74
2022/11/26 13:46:26;;;;;;;;;;;11.70;99.90;;;;;;8395444;28;20643;-74
2022/11/26 13:50:28;;;;;;;;;;;11.70;99.90;;;;;;8396978;28;19932;-74
2022/11/26 13:54:36;;;;;;;;;;;11.70;99.90;;;;;;8391711;28;20011;-74
2022/11/26 13:58:47;;;;;;;;;;;11.70;99.90;;;;;;8394538;28;19975;-74
2022/11/26 14:02:49;;;;;;;;;;;11.60;99.90;;;;;;8388067;28;19928;-74
2022/11/26 14:07:03;;;;;;;;;;;11.70;99.90;;;;;;8374912;28;19928;-75
2022/11/26 14:11:05;;;;;;;;;;;11.70;99.90;;;;;;8394588;28;20225;-74
2022/11/26 14:15:26;;;;;;;;;;;11.70;99.90;;;;;;8392711;28;19960;-74
2022/11/26 14:19:41;;;;;;;;;;;11.60;99.90;;;;;;8391985;28;19940;-74
2022/11/26 14:23:42;;;;;;;;;;;11.60;99.90;;;;;;8393324;28;19924;-74
2022/11/26 14:27:50;;;;;;;;;;;11.50;99.90;;;;;;8395783;28;20339;-74
2022/11/26 14:31:53;;;;;;;;;;;11.50;99.90;;;;;;8377701;28;20022;-74
2022/11/26 14:35:55;;;;;;;;;;;11.50;99.90;;;;;;8393595;28;19978;-74
2022/11/26 14:40:20;;;;;;;;;;;11.70;99.90;;;;;;8394772;28;19928;-74
2022/11/26 14:59:31;;;;;;;;;;;14.10;99.90;;;;;;8392226;28;19919;-74
2022/11/26 15:03:33;;;;;;;;;;;14.20;99.90;;;;;;8390537;28;19928;-75
2022/11/26 15:07:35;;;;;;;;;;;14.20;99.90;;;;;;8375998;28;19934;-75
2022/11/26 15:11:39;;;;;;;;;;;14.00;99.90;;;;;;8391165;28;19933;-74
2022/11/26 15:15:54;;;;;;;;;;;13.70;99.90;;;;;;8391057;28;20368;-74
2022/11/26 15:19:57;;;;;;;;;;;13.20;99.90;;;;;;8401364;28;19924;-74
2022/11/26 15:24:00;;;;;;;;;;;12.80;99.90;;;;;;8392664;28;19924;-74
2022/11/26 15:28:03;;;;;;;;;;;12.40;99.90;;;;;;8391770;28;19924;-74
2022/11/26 15:32:05;;;;;;;;;;;12.10;99.90;;;;;;8383922;28;19931;-74
2022/11/26 15:36:07;;;;;;;;;;;11.90;99.90;;;;;;8391516;28;20261;-74
2022/11/26 15:40:14;;;;;;;;;;;11.60;99.90;;;;;;8400127;28;19971;-74
2022/11/26 15:44:21;;;;;;;;;;;11.40;99.90;;;;;;8400910;28;19935;-74
2022/11/26 15:48:28;;;;;;;;;;;11.20;99.90;;;;;;8397559;28;20387;-74
2022/11/26 15:52:37;;;;;;;;;;;11.10;99.90;;;;;;8385345;28;19947;-74
2022/11/26 15:56:38;;;;;;;;;;;10.90;99.90;;;;;;8390293;28;20026;-74
2022/11/26 16:00:40;;;;;;;;;;;10.80;99.90;;;;;;8400622;28;19928;-74
2022/11/26 16:04:47;;;;;;;;;;;10.70;99.90;;;;;;8401460;28;19924;-74
2022/11/26 16:08:58;;;;;;;;;;;10.70;99.90;;;;;;8406325;28;22341;-75
2022/11/26 16:13:07;;;;;;;;;;;10.60;99.90;;;;;;8401829;28;20014;-74
2022/11/26 16:17:11;;;;;;;;;;;10.50;99.90;;;;;;8398362;28;19933;-74
2022/11/26 16:21:13;;;;;;;;;;;10.50;99.90;;;;;;8401999;28;19936;-74
2022/11/26 16:25:20;;;;;;;;;;;10.40;99.90;;;;;;8402298;28;20019;-74
2022/11/26 16:29:22;;;;;;;;;;;10.40;99.90;;;;;;8400490;28;20318;-74
2022/11/26 16:33:28;;;;;;;;;;;10.40;99.90;;;;;;8400990;28;20274;-74
2022/11/26 16:37:32;;;;;;;;;;;10.30;99.90;;;;;;8402351;28;20046;-74
2022/11/26 16:41:34;;;;;;;;;;;10.20;99.90;;;;;;8397815;28;19932;-74
2022/11/26 16:45:35;;;;;;;;;;;10.30;99.90;;;;;;8399767;28;19932;-74
2022/11/26 16:49:37;;;;;;;;;;;10.20;99.90;;;;;;8400046;28;19928;-74
2022/11/26 16:53:39;;;;;;;;;;;10.20;99.90;;;;;;8398444;28;19931;-74
2022/11/26 16:57:42;;;;;;;;;;;10.10;99.90;;;;;;8397894;28;20337;-74
2022/11/26 17:01:44;;;;;;;;;;;10.10;99.90;;;;;;8398721;28;19931;-74
2022/11/26 17:05:46;;;;;;;;;;;10.10;99.90;;;;;;8394832;28;19943;-75
2022/11/26 17:09:47;;;;;;;;;;;10.10;99.90;;;;;;8401715;28;19928;-74
2022/11/26 17:13:49;;;;;;;;;;;10.00;99.90;;;;;;8398744;28;20367;-74
2022/11/26 17:17:52;;;;;;;;;;;10.00;99.90;;;;;;8399132;28;20019;-74
2022/11/26 17:21:54;;;;;;;;;;;10.00;99.90;;;;;;8393676;28;19924;-74
2022/11/26 17:25:55;;;;;;;;;;;9.90;99.90;;;;;;8396779;28;19926;-74
2022/11/26 17:29:57;;;;;;;;;;;9.90;99.90;;;;;;8385464;28;19932;-74
2022/11/26 17:33:59;;;;;;;;;;;9.90;99.90;;;;;;8383236;28;20351;-74
2022/11/26 17:38:00;;;;;;;;;;;9.80;99.90;;;;;;8402689;28;20376;-74
2022/11/26 17:42:02;;;;;;;;;;;9.80;99.90;;;;;;8399642;28;19928;-74
2022/11/26 17:46:04;;;;;;;;;;;9.80;99.90;;;;;;8405641;28;19924;-74
2022/11/26 17:50:07;;;;;;;;;;;9.80;99.90;;;;;;8405099;28;19928;-74
2022/11/26 17:54:08;;;;;;;;;;;9.70;99.90;;;;;;8391500;28;20351;-75
2022/11/26 17:58:10;;;;;;;;;;;9.70;99.90;;;;;;8396453;28;20400;-74
2022/11/26 18:02:12;;;;;;;;;;;9.70;99.90;;;;;;8398158;28;19932;-74
2022/11/26 18:06:15;;;;;;;;;;;9.60;99.90;;;;;;8402863;28;22052;-74
2022/11/26 18:10:19;;;;;;;;;;;9.60;99.90;;;;;;8400442;28;20010;-74
2022/11/26 18:14:22;;;;;;;;;;;9.50;99.90;;;;;;8397528;28;19946;-74
2022/11/26 18:18:24;;;;;;;;;;;9.50;99.90;;;;;;8392861;28;19971;-74
2022/11/26 18:22:26;;;;;;;;;;;9.50;99.90;;;;;;8400967;28;19938;-74
2022/11/26 18:26:30;;;;;;;;;;;9.40;99.90;;;;;;8390526;28;19932;-73
2022/11/26 18:30:32;;;;;;;;;;;9.40;99.90;;;;;;8397330;28;21852;-75
2022/11/26 18:34:33;;;;;;;;;;;9.30;99.90;;;;;;8391681;28;19936;-74
2022/11/26 18:38:38;;;;;;;;;;;9.30;99.90;;;;;;8377190;28;19991;-74
2022/11/26 18:42:40;;;;;;;;;;;9.20;99.90;;;;;;8402704;28;19976;-74
2022/11/26 18:46:41;;;;;;;;;;;9.20;99.90;;;;;;8400121;28;19931;-74
2022/11/26 18:50:43;;;;;;;;;;;9.20;99.90;;;;;;8399760;28;20376;-74
2022/11/26 18:54:45;;;;;;;;;;;9.10;99.90;;;;;;8397658;28;19925;-74
2022/11/26 18:58:46;;;;;;;;;;;9.10;99.90;;;;;;8373810;28;19954;-74
2022/11/26 19:02:48;;;;;;;;;;;9.10;99.90;;;;;;8395136;28;20272;-74
2022/11/26 19:06:50;;;;;;;;;;;9.00;99.90;;;;;;8393787;28;19998;-74
2022/11/26 19:10:52;;;;;;;;;;;9.00;99.90;;;;;;8391677;28;20301;-74
2022/11/26 19:14:53;;;;;;;;;;;9.00;99.90;;;;;;8374710;28;19934;-74
2022/11/26 19:18:55;;;;;;;;;;;9.00;99.90;;;;;;8393284;28;19925;-74
2022/11/26 19:22:56;;;;;;;;;;;8.90;99.90;;;;;;8389827;28;19940;-74
2022/11/26 19:26:58;;;;;;;;;;;8.90;99.90;;;;;;8398256;28;20055;-74
2022/11/26 19:31:01;;;;;;;;;;;8.90;99.90;;;;;;8390809;28;19994;-74
2022/11/26 19:35:03;;;;;;;;;;;8.90;99.90;;;;;;8381354;28;20310;-74
2022/11/26 19:39:06;;;;;;;;;;;8.80;99.90;;;;;;8379953;28;20401;-74
2022/11/26 19:43:08;;;;;;;;;;;8.80;99.90;;;;;;8388460;28;20342;-74
2022/11/26 19:47:10;;;;;;;;;;;8.80;99.90;;;;;;8380956;28;19946;-74
2022/11/26 19:51:12;;;;;;;;;;;8.70;99.90;;;;;;8378314;28;19924;-74
2022/11/26 19:55:13;;;;;;;;;;;8.70;99.90;;;;;;8393508;28;19939;-74
2022/11/26 19:59:15;;;;;;;;;;;8.70;99.90;;;;;;8387998;28;20370;-73
2022/11/26 20:03:17;;;;;;;;;;;8.70;99.90;;;;;;8392365;28;20028;-74
2022/11/26 20:07:18;;;;;;;;;;;8.70;99.90;;;;;;8396097;28;20410;-74
2022/11/26 20:11:20;;;;;;;;;;;8.70;99.90;;;;;;8394234;28;19935;-74
2022/11/26 20:15:22;;;;;;;;;;;8.70;99.90;;;;;;8379622;28;19935;-74
2022/11/26 20:19:23;;;;;;;;;;;8.70;99.90;;;;;;8389152;28;19971;-74
2022/11/26 20:23:26;;;;;;;;;;;8.70;99.90;;;;;;8391610;28;20389;-74
2022/11/26 20:27:27;;;;;;;;;;;8.70;99.90;;;;;;8410289;28;20776;-74
2022/11/26 20:31:29;;;;;;;;;;;8.70;99.90;;;;;;8403166;28;20960;-74
2022/11/26 20:35:31;;;;;;;;;;;8.70;99.90;;;;;;8408353;28;19932;-74
2022/11/26 20:39:32;;;;;;;;;;;8.60;99.90;;;;;;8397810;28;20085;-74
2022/11/26 20:43:34;;;;;;;;;;;8.60;99.90;;;;;;8387690;28;19924;-74
2022/11/26 20:47:36;;;;;;;;;;;8.60;99.90;;;;;;8402690;28;19932;-74
2022/11/26 20:51:37;;;;;;;;;;;8.60;99.90;;;;;;8399173;28;19975;-74
2022/11/26 20:55:39;;;;;;;;;;;8.60;99.90;;;;;;8381080;28;19939;-74
2022/11/26 20:59:41;;;;;;;;;;;8.60;99.90;;;;;;8398135;28;19960;-74
2022/11/26 21:03:43;;;;;;;;;;;8.60;99.90;;;;;;8380728;28;19928;-74
2022/11/26 21:07:44;;;;;;;;;;;8.50;99.90;;;;;;8398081;28;19928;-74
2022/11/26 21:11:46;;;;;;;;;;;8.50;99.90;;;;;;8381797;28;19993;-74
2022/11/26 21:15:48;;;;;;;;;;;8.40;99.90;;;;;;8377746;28;20348;-74
2022/11/26 21:19:49;;;;;;;;;;;8.40;99.90;;;;;;8392492;28;19939;-74
2022/11/26 21:23:51;;;;;;;;;;;8.40;99.90;;;;;;8396003;28;21098;-74
2022/11/26 21:27:53;;;;;;;;;;;8.40;99.90;;;;;;8394871;28;19924;-74
2022/11/26 21:31:56;;;;;;;;;;;8.30;99.90;;;;;;8385462;28;19925;-74
2022/11/26 21:36:05;;;;;;;;;;;8.20;99.90;;;;;;8399601;28;19935;-74
2022/11/26 21:40:07;;;;;;;;;;;8.20;99.90;;;;;;8393894;28;20279;-74
2022/11/26 21:44:09;;;;;;;;;;;8.10;99.90;;;;;;8398964;28;20015;-74
2022/11/26 21:48:12;;;;;;;;;;;8.10;99.90;;;;;;8399681;28;19924;-74
2022/11/26 21:52:14;;;;;;;;;;;8.10;99.90;;;;;;8378750;28;19959;-74
2022/11/26 21:56:17;;;;;;;;;;;8.00;99.90;;;;;;8378369;28;20015;-74
2022/11/26 22:00:19;;;;;;;;;;;8.00;99.90;;;;;;8399380;28;19936;-74
2022/11/26 22:04:21;;;;;;;;;;;8.00;99.90;;;;;;8412753;28;20023;-74
2022/11/26 22:08:23;;;;;;;;;;;7.90;99.90;;;;;;8408251;28;19971;-74
2022/11/26 22:22:31;;;;;;;;;;;7.80;99.90;;;;;;8411017;28;19919;-74
2022/11/26 22:26:33;;;;;;;;;;;7.70;99.90;;;;;;8416834;28;20371;-74
2022/11/26 22:30:35;;;;;;;;;;;7.70;99.90;;;;;;8416192;28;19978;-74
2022/11/26 22:34:37;;;;;;;;;;;7.70;99.90;;;;;;8415647;28;20244;-74
2022/11/26 22:38:39;;;;;;;;;;;7.70;99.90;;;;;;8406850;28;19928;-74
2022/11/26 22:42:41;;;;;;;;;;;7.60;99.90;;;;;;8407377;28;19986;-74
2022/11/26 22:46:42;;;;;;;;;;;7.60;99.90;;;;;;8418045;28;19931;-74
2022/11/26 22:50:51;;;;;;;;;;;7.60;99.90;;;;;;8414387;28;19931;-74
2022/11/26 22:54:53;;;;;;;;;;;7.50;99.90;;;;;;8416934;28;19924;-74
2022/11/26 22:58:54;;;;;;;;;;;7.50;99.90;;;;;;8412256;28;19928;-74
2022/11/26 23:02:56;;;;;;;;;;;7.50;99.90;;;;;;8416203;28;19931;-74
2022/11/26 23:06:58;;;;;;;;;;;7.50;99.90;;;;;;8412652;28;19983;-74
2022/11/26 23:11:06;;;;;;;;;;;7.50;99.90;;;;;;8401077;28;19931;-74
2022/11/26 23:15:08;;;;;;;;;;;7.50;99.90;;;;;;8401575;28;19979;-74
2022/11/26 23:19:14;;;;;;;;;;;7.50;99.90;;;;;;8389428;28;19982;-74
2022/11/26 23:23:15;;;;;;;;;;;7.50;99.90;;;;;;8410057;28;19931;-74
2022/11/26 23:27:17;;;;;;;;;;;7.50;99.90;;;;;;8417287;28;19964;-74
2022/11/26 23:31:20;;;;;;;;;;;7.50;99.90;;;;;;8414626;28;20015;-74
2022/11/26 23:35:21;;;;;;;;;;;7.50;99.90;;;;;;8409825;28;20405;-74
2022/11/26 23:39:23;;;;;;;;;;;7.50;99.90;;;;;;8403558;28;20534;-74
2022/11/26 23:43:25;;;;;;;;;;;7.40;99.90;;;;;;8407622;28;19931;-74
2022/11/26 23:47:27;;;;;;;;;;;7.40;99.90;;;;;;8419815;28;19931;-74
2022/11/26 23:51:29;;;;;;;;;;;7.50;99.90;;;;;;8418389;28;19978;-74
2022/11/26 23:55:32;;;;;;;;;;;7.40;99.90;;;;;;8399057;28;19950;-75
2022/11/26 23:59:33;;;;;;;;;;;7.40;99.90;;;;;;8425544;28;19924;-74
